createdAt,value
2022-11-16T00:01:34.495Z,14.93
2022-11-16T00:03:56.729Z,14.43
2022-11-16T00:06:18.384Z,15.83
2022-11-16T00:08:41.104Z,14.83
2022-11-16T00:11:06.010Z,15.27
2022-11-16T00:13:27.230Z,15.23
2022-11-16T00:15:57.122Z,16.00
2022-11-16T00:18:18.245Z,17.63
2022-11-16T00:20:39.708Z,16.70
2022-11-16T00:23:00.731Z,14.57
2022-11-16T00:25:22.372Z,16.87
2022-11-16T00:27:44.871Z,16.73
2022-11-16T00:30:06.447Z,15.60
2022-11-16T00:32:29.136Z,14.30
2022-11-16T00:34:50.580Z,14.50
2022-11-16T00:37:11.854Z,13.63
2022-11-16T00:39:32.939Z,13.40
2022-11-16T00:41:54.243Z,12.90
2022-11-16T00:44:15.922Z,12.53
2022-11-16T00:46:37.047Z,13.40
2022-11-16T00:48:59.302Z,15.60
2022-11-16T00:51:20.759Z,15.63
2022-11-16T00:53:42.041Z,12.63
2022-11-16T00:56:03.272Z,12.90
2022-11-16T00:58:24.620Z,12.27
2022-11-16T01:00:46.094Z,12.00
2022-11-16T01:03:07.601Z,12.40
2022-11-16T01:05:30.410Z,12.53
2022-11-16T01:07:52.188Z,11.73
2022-11-16T01:10:14.253Z,13.40
2022-11-16T01:12:34.396Z,13.53
2022-11-16T01:14:55.816Z,15.57
2022-11-16T01:17:17.603Z,11.90
2022-11-16T01:19:38.989Z,12.40
2022-11-16T01:22:02.565Z,12.13
2022-11-16T01:24:24.915Z,11.63
2022-11-16T01:26:46.145Z,10.90
2022-11-16T01:29:07.472Z,11.03
2022-11-16T01:31:28.525Z,11.00
2022-11-16T01:33:49.840Z,10.87
2022-11-16T01:36:14.565Z,10.87
2022-11-16T01:38:37.726Z,11.70
2022-11-16T01:40:58.878Z,12.90
2022-11-16T01:43:21.659Z,12.87
2022-11-16T01:45:43.375Z,12.60
2022-11-16T01:48:04.985Z,14.37
2022-11-16T01:50:26.023Z,12.50
2022-11-16T01:52:52.497Z,13.07
2022-11-16T01:55:15.468Z,12.93
2022-11-16T01:57:38.928Z,14.20
2022-11-16T02:00:01.323Z,14.53
2022-11-16T02:02:22.793Z,13.53
2022-11-16T02:04:44.449Z,13.60
2022-11-16T02:07:10.951Z,13.50
2022-11-16T02:09:54.365Z,13.20
2022-11-16T02:12:24.398Z,14.13
2022-11-16T02:14:52.682Z,12.23
2022-11-16T02:17:20.785Z,14.40
2022-11-16T02:19:50.595Z,12.77
2022-11-16T02:22:18.822Z,13.97
2022-11-16T02:24:43.815Z,15.00
2022-11-16T02:27:28.495Z,13.90
2022-11-16T02:29:52.065Z,12.40
2022-11-16T02:32:14.464Z,14.20
2022-11-16T02:34:37.584Z,17.03
2022-11-16T02:37:00.651Z,13.67
2022-11-16T02:39:24.240Z,13.60
2022-11-16T02:41:47.892Z,14.10
2022-11-16T02:44:12.584Z,13.83
2022-11-16T02:46:37.748Z,14.03
2022-11-16T02:49:02.331Z,13.90
2022-11-16T02:51:24.792Z,13.53
2022-11-16T02:53:53.483Z,13.10
2022-11-16T02:56:15.008Z,13.50
2022-11-16T02:58:36.620Z,13.10
2022-11-16T03:01:01.495Z,13.10
2022-11-16T03:03:29.683Z,13.43
2022-11-16T03:05:52.807Z,13.03
2022-11-16T03:08:17.402Z,15.00
2022-11-16T03:10:57.608Z,13.13
2022-11-16T03:13:19.581Z,14.73
2022-11-16T03:15:42.310Z,13.30
2022-11-16T03:18:04.478Z,14.23
2022-11-16T03:20:28.911Z,13.60
2022-11-16T03:22:51.840Z,13.57
2022-11-16T03:25:14.077Z,13.57
2022-11-16T03:27:38.170Z,14.23
2022-11-16T03:30:03.251Z,15.67
2022-11-16T03:32:29.752Z,14.63
2022-11-16T03:34:53.054Z,14.10
2022-11-16T03:37:16.038Z,14.40
2022-11-16T03:39:39.538Z,15.27
2022-11-16T03:42:02.824Z,14.40
2022-11-16T03:44:30.990Z,13.73
2022-11-16T03:46:52.042Z,14.37
2022-11-16T03:49:13.265Z,14.10
2022-11-16T03:51:34.717Z,14.17
2022-11-16T03:53:57.075Z,15.47
2022-11-16T03:56:18.133Z,14.63
2022-11-16T03:58:39.637Z,15.67
2022-11-16T04:01:01.119Z,14.80
2022-11-16T04:03:22.808Z,15.97
2022-11-16T04:06:01.956Z,18.17
2022-11-16T04:08:40.942Z,18.33
2022-11-16T04:11:21.355Z,17.77
2022-11-16T04:14:02.267Z,16.80
2022-11-16T04:16:43.967Z,15.43
2022-11-16T04:19:22.947Z,16.40
2022-11-16T04:22:03.314Z,15.93
2022-11-16T04:24:26.040Z,18.10
2022-11-16T04:27:07.492Z,16.83
2022-11-16T04:29:28.954Z,15.07
2022-11-16T04:32:07.853Z,15.67
2022-11-16T04:34:46.671Z,15.70
2022-11-16T04:37:24.566Z,15.20
2022-11-16T04:39:45.930Z,15.60
2022-11-16T04:42:16.028Z,16.90
2022-11-16T04:44:55.193Z,15.50
2022-11-16T04:47:16.504Z,15.90
2022-11-16T04:49:37.514Z,16.57
2022-11-16T04:51:58.950Z,14.80
2022-11-16T04:54:20.278Z,15.40
2022-11-16T04:56:41.624Z,15.20
2022-11-16T04:59:04.108Z,15.77
2022-11-16T05:01:45.327Z,16.37
2022-11-16T05:04:06.202Z,15.03
2022-11-16T05:06:27.607Z,14.17
2022-11-16T05:08:48.954Z,18.27
2022-11-16T05:11:10.415Z,14.67
2022-11-16T05:13:31.556Z,14.73
2022-11-16T05:15:54.200Z,16.83
2022-11-16T05:18:15.456Z,14.50
2022-11-16T05:20:54.168Z,14.30
2022-11-16T05:23:29.386Z,13.50
2022-11-16T05:25:50.526Z,17.57
2022-11-16T05:28:11.924Z,21.87
2022-11-16T05:30:32.966Z,19.10
2022-11-16T05:32:55.872Z,17.77
2022-11-16T05:35:17.384Z,17.10
2022-11-16T05:37:38.482Z,17.37
2022-11-16T05:39:59.711Z,17.57
2022-11-16T05:42:20.961Z,18.63
2022-11-16T05:44:41.999Z,17.87
2022-11-16T05:47:03.442Z,16.47
2022-11-16T05:49:26.990Z,16.60
2022-11-16T05:51:48.350Z,14.70
2022-11-16T05:54:09.594Z,16.00
2022-11-16T05:56:31.002Z,15.27
2022-11-16T05:58:52.374Z,14.50
2022-11-16T06:01:13.740Z,13.20
2022-11-16T06:03:36.258Z,12.90
2022-11-16T06:05:59.205Z,11.80
2022-11-16T06:08:20.574Z,12.47
2022-11-16T06:10:41.943Z,11.17
2022-11-16T06:13:03.426Z,11.03
2022-11-16T06:15:24.561Z,10.87
2022-11-16T06:17:45.952Z,11.47
2022-11-16T06:20:07.962Z,11.93
2022-11-16T06:22:30.541Z,11.57
2022-11-16T06:24:51.711Z,10.47
2022-11-16T06:27:12.941Z,11.27
2022-11-16T06:29:34.180Z,10.97
2022-11-16T06:31:55.453Z,11.53
2022-11-16T06:34:16.700Z,11.07
2022-11-16T06:36:37.668Z,10.63
2022-11-16T06:39:01.636Z,10.17
2022-11-16T06:41:23.210Z,10.73
2022-11-16T06:43:44.287Z,9.83
2022-11-16T06:46:05.950Z,10.03
2022-11-16T06:48:27.378Z,10.33
2022-11-16T06:50:49.634Z,9.43
2022-11-16T06:53:10.907Z,10.03
2022-11-16T06:55:33.610Z,10.60
2022-11-16T06:57:54.795Z,10.47
2022-11-16T07:00:16.720Z,13.10
2022-11-16T07:02:37.868Z,10.37
2022-11-16T07:05:03.289Z,9.33
2022-11-16T07:07:25.149Z,11.97
2022-11-16T07:09:46.543Z,9.27
2022-11-16T07:12:09.576Z,10.33
2022-11-16T07:14:31.009Z,12.47
2022-11-16T07:16:57.888Z,12.00
2022-11-16T07:19:20.554Z,10.77
2022-11-16T07:21:41.756Z,10.57
2022-11-16T07:24:02.976Z,10.90
2022-11-16T07:26:24.482Z,11.00
2022-11-16T07:28:48.597Z,11.10
2022-11-16T07:31:10.742Z,10.83
2022-11-16T07:33:32.137Z,10.80
2022-11-16T07:35:53.301Z,11.40
2022-11-16T07:38:18.011Z,10.93
2022-11-16T07:40:39.604Z,10.73
2022-11-16T07:43:00.967Z,10.23
2022-11-16T07:45:23.499Z,11.17
2022-11-16T07:47:44.729Z,10.03
2022-11-16T07:50:06.581Z,11.53
2022-11-16T07:52:27.717Z,9.60
2022-11-16T07:54:48.811Z,9.70
2022-11-16T07:57:10.177Z,8.97
2022-11-16T07:59:31.702Z,10.10
2022-11-16T08:01:55.729Z,13.87
2022-11-16T08:04:17.573Z,13.73
2022-11-16T08:06:38.691Z,12.93
2022-11-16T08:09:00.831Z,12.57
2022-11-16T08:11:22.210Z,11.67
2022-11-16T08:13:43.908Z,10.47
2022-11-16T08:16:07.941Z,10.33
2022-11-16T08:18:30.813Z,9.93
2022-11-16T08:20:52.427Z,10.17
2022-11-16T08:23:13.899Z,10.57
2022-11-16T08:25:35.654Z,11.03
2022-11-16T08:27:57.220Z,11.60
2022-11-16T08:30:18.526Z,12.70
2022-11-16T08:32:42.047Z,14.00
2022-11-16T08:35:05.131Z,12.80
2022-11-16T08:37:28.533Z,9.80
2022-11-16T08:39:50.041Z,9.57
2022-11-16T08:42:11.147Z,9.40
2022-11-16T08:44:35.452Z,8.63
2022-11-16T08:46:56.982Z,8.30
2022-11-16T08:49:18.363Z,8.47
2022-11-16T08:51:41.533Z,8.70
2022-11-16T08:54:03.668Z,9.80
2022-11-16T08:56:26.228Z,7.33
2022-11-16T08:58:49.507Z,7.93
2022-11-16T09:01:15.030Z,22.07
2022-11-16T09:03:37.011Z,14.07
2022-11-16T09:05:59.974Z,11.30
2022-11-16T09:08:22.337Z,15.83
2022-11-16T09:10:43.642Z,16.30
2022-11-16T09:13:04.883Z,10.90
2022-11-16T09:15:28.035Z,12.23
2022-11-16T09:17:49.919Z,6.47
2022-11-16T09:20:11.722Z,21.77
2022-11-16T09:22:33.026Z,5.87
2022-11-16T09:24:55.830Z,10.23
2022-11-16T09:27:18.959Z,7.20
2022-11-16T09:29:40.571Z,6.53
2022-11-16T09:32:02.205Z,5.13
2022-11-16T09:34:23.600Z,5.93
2022-11-16T09:36:46.135Z,5.33
2022-11-16T09:39:29.417Z,9.90
2022-11-16T09:42:01.441Z,6.80
2022-11-16T09:44:34.933Z,5.53
2022-11-16T09:46:57.503Z,4.47
2022-11-16T09:49:20.498Z,3.43
2022-11-16T09:51:43.136Z,2.40
2022-11-16T09:54:06.560Z,3.70
2022-11-16T09:56:29.490Z,5.73
2022-11-16T09:59:17.944Z,3.73
2022-11-16T10:01:42.927Z,3.50
2022-11-16T10:04:07.754Z,4.57
2022-11-16T10:06:34.008Z,9.33
2022-11-16T10:08:56.619Z,3.90
2022-11-16T10:11:26.807Z,3.37
2022-11-16T10:13:52.399Z,2.60
2022-11-16T10:16:15.513Z,2.60
2022-11-16T10:18:46.437Z,4.83
2022-11-16T10:21:17.855Z,2.87
2022-11-16T10:23:46.127Z,2.17
2022-11-16T10:26:13.039Z,4.90
2022-11-16T10:28:54.209Z,3.87
2022-11-16T10:31:19.009Z,6.80
2022-11-16T10:33:43.083Z,2.70
2022-11-16T10:36:09.654Z,1.97
2022-11-16T10:38:31.834Z,2.10
2022-11-16T10:40:54.407Z,2.70
2022-11-16T10:43:16.843Z,2.10
2022-11-16T10:45:40.307Z,1.97
2022-11-16T10:48:15.076Z,2.80
2022-11-16T10:50:38.663Z,2.50
2022-11-16T10:53:01.895Z,1.70
2022-11-16T10:55:23.552Z,1.97
2022-11-16T10:57:55.033Z,1.90
2022-11-16T11:00:34.465Z,1.90
2022-11-16T11:02:56.297Z,2.40
2022-11-16T11:05:20.208Z,1.73
2022-11-16T11:07:55.454Z,2.20
2022-11-16T11:10:56.009Z,2.70
2022-11-16T11:13:29.429Z,2.20
2022-11-16T11:15:51.414Z,3.70
2022-11-16T11:18:20.896Z,3.30
2022-11-16T11:20:45.272Z,3.27
2022-11-16T11:23:15.036Z,2.00
2022-11-16T11:25:37.795Z,7.30
2022-11-16T11:28:06.684Z,3.37
2022-11-16T11:30:29.127Z,3.33
2022-11-16T11:32:52.881Z,2.27
2022-11-16T11:35:23.509Z,2.77
2022-11-16T11:37:45.269Z,2.33
2022-11-16T11:40:20.043Z,1.40
2022-11-16T11:42:43.962Z,1.57
2022-11-16T11:45:07.769Z,2.00
2022-11-16T11:48:02.976Z,1.77
2022-11-16T11:50:26.966Z,2.67
2022-11-16T11:52:54.871Z,2.83
2022-11-16T11:55:17.375Z,3.20
2022-11-16T11:57:43.687Z,5.37
2022-11-16T12:00:07.061Z,6.57
2022-11-16T12:02:38.854Z,7.73
2022-11-16T12:05:17.906Z,3.43
2022-11-16T12:07:47.690Z,4.03
2022-11-16T12:10:12.259Z,5.03
2022-11-16T12:12:38.781Z,4.60
2022-11-16T12:15:13.474Z,7.50
2022-11-16T12:17:42.213Z,5.47
2022-11-16T12:20:10.171Z,3.53
2022-11-16T12:22:41.278Z,3.97
2022-11-16T12:25:11.154Z,6.07
2022-11-16T12:27:38.487Z,3.63
2022-11-16T12:30:03.487Z,2.03
2022-11-16T12:32:33.684Z,2.37
2022-11-16T12:35:03.709Z,2.30
2022-11-16T12:37:27.187Z,2.20
2022-11-16T12:39:59.082Z,2.20
2022-11-16T12:42:27.123Z,1.93
2022-11-16T12:44:57.742Z,2.43
2022-11-16T12:47:22.757Z,5.27
2022-11-16T12:49:57.231Z,2.53
2022-11-16T12:52:23.138Z,2.23
2022-11-16T12:55:25.363Z,2.00
2022-11-16T12:57:48.454Z,2.50
2022-11-16T13:00:10.946Z,2.30
2022-11-16T13:02:41.219Z,2.03
2022-11-16T13:05:05.833Z,3.40
2022-11-16T13:07:30.180Z,2.20
2022-11-16T13:09:53.670Z,2.13
2022-11-16T13:12:17.369Z,6.70
2022-11-16T13:14:45.070Z,3.97
2022-11-16T13:17:07.452Z,4.37
2022-11-16T13:19:29.172Z,1.63
2022-11-16T13:21:54.818Z,2.70
2022-11-16T13:24:26.810Z,3.97
2022-11-16T13:26:52.814Z,3.60
2022-11-16T13:29:17.972Z,2.43
2022-11-16T13:31:43.997Z,3.20
2022-11-16T13:34:07.792Z,2.23
2022-11-16T13:36:46.392Z,3.30
2022-11-16T13:39:07.881Z,2.13
2022-11-16T13:41:31.725Z,2.70
2022-11-16T13:43:53.203Z,3.27
2022-11-16T13:46:48.194Z,3.87
2022-11-16T13:48:57.386Z,1.47
2022-11-16T13:51:19.848Z,3.70
2022-11-16T13:56:29.524Z,5.00
2022-11-16T13:58:51.914Z,5.40
2022-11-16T14:01:15.462Z,11.83
2022-11-16T14:03:39.560Z,2.77
2022-11-16T14:06:02.069Z,2.43
2022-11-16T14:08:44.111Z,6.00
2022-11-16T14:11:06.130Z,5.87
2022-11-16T14:13:47.189Z,4.27
2022-11-16T14:16:27.665Z,3.33
2022-11-16T14:18:49.622Z,2.50
2022-11-16T14:21:16.690Z,2.63
2022-11-16T14:24:01.101Z,1.87
2022-11-16T14:26:24.377Z,1.63
2022-11-16T14:29:03.586Z,4.90
2022-11-16T14:31:27.300Z,4.57
2022-11-16T14:33:50.682Z,3.10
2022-11-16T14:36:12.429Z,3.57
2022-11-16T14:38:36.388Z,2.03
2022-11-16T14:40:59.954Z,3.70
2022-11-16T14:43:24.609Z,2.40
2022-11-16T14:45:48.170Z,4.40
2022-11-16T14:48:16.007Z,5.73
2022-11-16T14:50:40.972Z,3.10
2022-11-16T14:53:04.588Z,5.47
2022-11-16T14:55:27.583Z,4.57
2022-11-16T14:57:49.149Z,3.70
2022-11-16T15:00:11.750Z,3.40
2022-11-16T15:02:33.383Z,2.67
2022-11-16T15:04:54.715Z,3.07
2022-11-16T15:07:18.383Z,2.10
2022-11-16T15:09:40.846Z,2.80
2022-11-16T15:12:22.153Z,2.03
2022-11-16T15:14:47.192Z,1.50
2022-11-16T15:17:08.277Z,2.37
2022-11-16T15:19:30.636Z,3.87
2022-11-16T15:21:53.189Z,2.20
2022-11-16T15:24:31.007Z,2.07
2022-11-16T15:26:53.162Z,1.57
2022-11-16T15:29:17.968Z,2.43
2022-11-16T15:31:42.626Z,1.83
2022-11-16T15:34:03.638Z,2.43
2022-11-16T15:36:32.647Z,4.40
2022-11-16T15:38:54.726Z,3.30
2022-11-16T15:41:16.823Z,2.60
2022-11-16T15:43:49.576Z,2.90
2022-11-16T15:46:14.351Z,2.57
2022-11-16T15:48:38.415Z,2.00
2022-11-16T15:51:06.582Z,3.07
2022-11-16T15:53:38.327Z,4.00
2022-11-16T15:55:59.414Z,4.00
2022-11-16T15:58:25.785Z,4.43
2022-11-16T16:00:48.250Z,2.33
2022-11-16T16:03:21.450Z,4.73
2022-11-16T16:05:42.599Z,2.67
2022-11-16T16:08:05.927Z,1.93
2022-11-16T16:10:27.752Z,2.23
2022-11-16T16:12:50.946Z,2.13
2022-11-16T16:15:22.841Z,3.67
2022-11-16T16:17:47.035Z,3.90
2022-11-16T16:20:18.265Z,1.93
2022-11-16T16:22:39.939Z,1.77
2022-11-16T16:25:01.965Z,3.20
2022-11-16T16:27:24.598Z,1.50
2022-11-16T16:29:46.803Z,2.30
2022-11-16T16:32:10.664Z,4.17
2022-11-16T16:34:31.946Z,12.07
2022-11-16T16:36:54.900Z,2.60
2022-11-16T16:39:16.662Z,3.70
2022-11-16T16:41:37.713Z,7.10
2022-11-16T16:43:59.027Z,6.20
2022-11-16T16:46:22.945Z,10.60
2022-11-16T16:48:44.912Z,11.57
2022-11-16T16:51:08.538Z,11.60
2022-11-16T16:53:31.292Z,9.20
2022-11-16T16:55:53.041Z,7.57
2022-11-16T16:58:15.416Z,7.37
2022-11-16T17:00:37.235Z,8.33
2022-11-16T17:02:59.338Z,8.03
2022-11-16T17:05:23.469Z,5.07
2022-11-16T17:07:44.556Z,6.60
2022-11-16T17:10:08.113Z,6.30
2022-11-16T17:12:29.034Z,7.13
2022-11-16T17:14:52.284Z,5.10
2022-11-16T17:17:14.094Z,5.50
2022-11-16T17:19:36.528Z,9.97
2022-11-16T17:21:58.198Z,9.43
2022-11-16T17:24:20.111Z,10.23
2022-11-16T17:26:42.943Z,8.07
2022-11-16T17:29:04.537Z,7.30
2022-11-16T17:31:26.693Z,6.53
2022-11-16T17:33:47.957Z,8.70
2022-11-16T17:36:11.210Z,6.07
2022-11-16T17:38:32.948Z,7.83
2022-11-16T17:40:54.431Z,6.23
2022-11-16T17:43:17.075Z,4.10
2022-11-16T17:45:38.115Z,4.90
2022-11-16T17:47:59.315Z,9.00
2022-11-16T17:50:21.110Z,7.43
2022-11-16T17:52:42.533Z,6.30
2022-11-16T17:55:04.138Z,5.63
2022-11-16T17:57:28.566Z,7.80
2022-11-16T17:59:55.516Z,5.70
2022-11-16T18:02:18.859Z,5.60
2022-11-16T18:04:48.130Z,5.43
2022-11-16T18:07:13.920Z,4.93
2022-11-16T18:09:36.258Z,6.80
2022-11-16T18:11:58.444Z,7.33
2022-11-16T18:14:22.288Z,5.00
2022-11-16T18:16:47.805Z,7.40
2022-11-16T18:19:10.174Z,9.30
2022-11-16T18:21:34.782Z,10.60
2022-11-16T18:23:57.048Z,9.23
2022-11-16T18:26:20.930Z,8.00
2022-11-16T18:28:42.290Z,7.80
2022-11-16T18:31:05.386Z,7.80
2022-11-16T18:33:30.554Z,8.97
2022-11-16T18:35:52.234Z,10.73
2022-11-16T18:38:13.765Z,9.70
2022-11-16T18:40:35.206Z,10.33
2022-11-16T18:42:58.402Z,13.27
2022-11-16T18:45:20.151Z,19.70
2022-11-16T18:47:43.975Z,25.37
2022-11-16T18:50:18.926Z,20.00
2022-11-16T18:52:40.538Z,17.03
2022-11-16T18:55:02.540Z,16.40
2022-11-16T18:57:23.745Z,20.07
2022-11-16T18:59:46.573Z,17.87
2022-11-16T19:02:07.862Z,15.20
2022-11-16T19:04:29.543Z,15.83
2022-11-16T19:06:52.400Z,15.03
2022-11-16T19:09:13.467Z,16.13
2022-11-16T19:11:34.945Z,28.07
2022-11-16T19:16:05.816Z,20.27
2022-11-16T19:18:27.241Z,15.90
2022-11-16T19:20:48.307Z,15.27
2022-11-16T19:23:11.339Z,11.87
2022-11-16T19:25:32.908Z,20.37
2022-11-16T19:27:54.319Z,13.77
2022-11-16T19:30:16.194Z,17.07
2022-11-16T19:32:37.531Z,14.23
2022-11-16T19:34:59.019Z,10.77
2022-11-16T19:37:20.327Z,15.00
2022-11-16T19:39:42.891Z,15.47
2022-11-16T19:42:03.930Z,18.90
2022-11-16T19:44:25.663Z,14.20
2022-11-16T19:46:47.252Z,14.33
2022-11-16T19:49:13.443Z,14.90
2022-11-16T19:51:37.280Z,17.93
2022-11-16T19:53:59.080Z,20.70
2022-11-16T19:56:22.506Z,15.37
2022-11-16T19:58:43.595Z,18.87
2022-11-16T20:01:06.066Z,13.73
2022-11-16T20:03:27.754Z,12.60
2022-11-16T20:05:49.339Z,13.97
2022-11-16T20:08:10.959Z,11.83
2022-11-16T20:10:34.383Z,10.63
2022-11-16T20:12:58.271Z,13.30
2022-11-16T20:15:19.294Z,11.53
2022-11-16T20:17:40.676Z,15.70
2022-11-16T20:20:02.009Z,12.37
2022-11-16T20:22:23.161Z,17.40
2022-11-16T20:24:44.316Z,20.93
2022-11-16T20:27:05.644Z,17.63
2022-11-16T20:29:28.059Z,23.43
2022-11-16T20:31:49.503Z,18.83
2022-11-16T20:34:13.949Z,18.30
2022-11-16T20:36:35.867Z,18.80
2022-11-16T20:38:57.408Z,18.50
2022-11-16T20:41:19.226Z,16.47
2022-11-16T20:43:40.459Z,17.93
2022-11-16T20:46:02.871Z,16.93
2022-11-16T20:48:24.074Z,154.07
2022-11-16T20:50:45.732Z,47.20
2022-11-16T20:53:07.140Z,21.83
2022-11-16T20:55:28.251Z,24.37
2022-11-16T20:57:49.619Z,20.10
2022-11-16T21:00:11.642Z,19.50
2022-11-16T21:02:34.066Z,15.50
2022-11-16T21:05:00.055Z,13.07
2022-11-16T21:07:21.908Z,16.23
2022-11-16T21:09:57.030Z,19.43
2022-11-16T21:12:41.520Z,60.70
2022-11-16T21:15:04.189Z,29.07
2022-11-16T21:17:25.512Z,19.43
2022-11-16T21:20:12.345Z,62.73
2022-11-16T21:22:32.302Z,77.40
2022-11-16T21:24:53.876Z,26.10
2022-11-16T21:27:15.130Z,36.47
2022-11-16T21:29:36.517Z,26.23
2022-11-16T21:31:57.399Z,27.67
2022-11-16T21:34:20.195Z,19.70
2022-11-16T21:36:42.884Z,35.37
2022-11-16T21:39:03.961Z,21.67
2022-11-16T21:41:25.891Z,22.27
2022-11-16T21:43:47.168Z,21.50
2022-11-16T21:46:08.801Z,19.10
2022-11-16T21:48:31.740Z,20.60
2022-11-16T21:51:00.259Z,20.63
2022-11-16T21:53:22.593Z,21.63
2022-11-16T21:55:49.510Z,19.00
2022-11-16T21:58:10.823Z,19.27
2022-11-16T22:00:32.390Z,19.93
2022-11-16T22:02:53.459Z,20.73
2022-11-16T22:05:32.307Z,18.03
2022-11-16T22:07:53.800Z,22.53
2022-11-16T22:10:16.515Z,15.47
2022-11-16T22:12:38.109Z,20.27
2022-11-16T22:14:59.434Z,19.27
2022-11-16T22:17:20.494Z,23.53
2022-11-16T22:19:41.955Z,19.17
2022-11-16T22:22:03.401Z,16.43
2022-11-16T22:24:24.672Z,15.93
2022-11-16T22:26:47.365Z,14.87
2022-11-16T22:29:08.527Z,17.10
2022-11-16T22:31:29.854Z,14.47
2022-11-16T22:33:52.497Z,16.23
2022-11-16T22:36:14.361Z,16.13
2022-11-16T22:38:35.930Z,15.10
2022-11-16T22:40:57.835Z,17.50
2022-11-16T22:43:21.015Z,19.13
2022-11-16T22:45:42.360Z,18.40
2022-11-16T22:48:03.836Z,15.77
2022-11-16T22:50:25.421Z,15.90
2022-11-16T22:52:46.935Z,15.83
2022-11-16T22:55:08.271Z,16.00
2022-11-16T22:57:29.675Z,16.27
2022-11-16T22:59:52.239Z,14.70
2022-11-16T23:02:13.492Z,14.97
2022-11-16T23:04:34.766Z,14.07
2022-11-16T23:06:56.148Z,13.20
2022-11-16T23:09:17.423Z,11.90
2022-11-16T23:11:56.314Z,13.07
2022-11-16T23:14:35.727Z,13.57
2022-11-16T23:16:58.534Z,13.40
2022-11-16T23:19:37.787Z,13.83
2022-11-16T23:22:16.725Z,13.43
2022-11-16T23:24:55.664Z,17.70
2022-11-16T23:27:32.097Z,13.50
2022-11-16T23:29:54.516Z,14.00
2022-11-16T23:32:17.030Z,15.97
2022-11-16T23:34:38.047Z,16.70
2022-11-16T23:37:02.592Z,14.60
2022-11-16T23:39:23.977Z,16.33
2022-11-16T23:42:02.997Z,20.57
2022-11-16T23:44:24.490Z,22.93
2022-11-16T23:46:45.867Z,17.13
2022-11-16T23:49:08.214Z,17.73
2022-11-16T23:51:29.669Z,19.27
2022-11-16T23:53:51.782Z,22.90
2022-11-16T23:56:13.109Z,21.83
2022-11-16T23:58:34.583Z,20.37
